Kezdőlap
METAR-TAF:

METAR-TAF

Repülőterek :

Ouagadougou, Burkina Faso

földrajzi szélesség: 12-21N, földrajzi hosszúság: 001-31W, magasság: 316 m

Jelenlegi meteorológiai megfigyelések

A jelentés 46 perccel ezelõtt készült, 01:00 UTC
Szélcsend
Hőmérséklet 20°C
Páratartalom 21%
Légköri nyomás 1013 hPa
Látótávolság 10 km, vagy több
felhőtlen 1500 m magasságban, és nincs gomolyfelhõ

METAR: DFFD 230100Z 00000KT CAVOK 20/M03 Q1013 NOSIG

Idő: 01:46 (01:46 UTC)

Előrejelzés

A jelentés 2 órával és 46 perccel ezelõtt készült, 23:00 UTC
Az előrejelzés 23-én 00 óra UTC és 24-én 06 óra UTC között érvényes
Keleti szél 10 kt
Látótávolság: 8000 m
23-én 06 óra UTC és 23-én 12 óra UTC között ideiglenes
Látótávolság: 4000 m
kiterjedt por
23-én 17 óra UTC és 23-én 21 óra UTC között ideiglenes
Látótávolság: 4000 m
kiterjedt por

TAF: DFFD 222300Z 2300/2406 08010KT 8000 NSC TEMPO 2306/2312 4000 DU TEMPO 2317/2321 4000 DU

Meteorológiai megfigyelések és előrejelzések több, mint 4000 repülőtéren (METAR és TAF jelentéseket).

A térképen piros és sárga pontok jelzik az elérhető meteorológiai állomásokat.

Mozgassa az egeret a pont fölött, hogy megjelenjen az állomás neve.

Azután kattintson az időjárási megfigyelések és előrejelzések megtekintéséhez.

A térkép megváltoztatása: kattintson a fekete keresztel jelölt zöld gombra ráközelítéshez, a vonallal jelölt zöld gombra távolításhoz, vagy a zöld nyilakra a szomszédos térképek eléréséhez.


METAR-TAF: